createdAt,value
2018-05-29T00:00:30.674Z,19.90
2018-05-29T00:02:58.286Z,19.90
2018-05-29T00:05:25.913Z,19.80
2018-05-29T00:07:53.538Z,19.80
2018-05-29T00:10:21.117Z,19.80
2018-05-29T00:12:49.505Z,19.70
2018-05-29T00:15:17.118Z,19.70
2018-05-29T00:17:44.743Z,19.70
2018-05-29T00:20:12.326Z,19.60
2018-05-29T00:22:39.909Z,19.60
2018-05-29T00:25:07.527Z,19.60
2018-05-29T00:27:35.114Z,19.60
2018-05-29T00:30:02.745Z,19.60
2018-05-29T00:32:30.339Z,19.50
2018-05-29T00:34:57.960Z,19.50
2018-05-29T00:37:25.545Z,19.50
2018-05-29T00:39:53.174Z,19.50
2018-05-29T00:42:20.801Z,19.40
2018-05-29T00:44:48.413Z,19.40
2018-05-29T00:47:15.998Z,19.40
2018-05-29T00:49:43.641Z,19.40
2018-05-29T00:52:11.224Z,19.40
2018-05-29T00:54:38.845Z,19.40
2018-05-29T00:57:06.429Z,19.40
2018-05-29T00:59:34.050Z,19.40
2018-05-29T01:02:01.726Z,19.30
2018-05-29T01:04:30.073Z,19.30
2018-05-29T01:06:57.653Z,19.20
2018-05-29T01:09:25.292Z,19.20
2018-05-29T01:11:52.916Z,19.20
2018-05-29T01:14:20.573Z,19.20
2018-05-29T01:16:48.193Z,19.20
2018-05-29T01:19:15.828Z,19.10
2018-05-29T01:21:43.449Z,19.10
2018-05-29T01:24:11.080Z,19.00
2018-05-29T01:26:38.705Z,19.00
2018-05-29T01:29:06.290Z,19.00
2018-05-29T01:31:33.877Z,18.90
2018-05-29T01:34:01.516Z,18.90
2018-05-29T01:36:29.103Z,18.90
2018-05-29T01:38:56.694Z,18.80
2018-05-29T01:41:24.316Z,18.80
2018-05-29T01:43:51.908Z,18.70
2018-05-29T01:46:19.534Z,18.80
2018-05-29T01:48:47.120Z,18.70
2018-05-29T01:51:15.497Z,18.70
2018-05-29T01:53:43.842Z,18.60
2018-05-29T01:56:11.462Z,18.60
2018-05-29T01:58:39.088Z,18.60
2018-05-29T02:01:07.479Z,18.70
2018-05-29T02:03:35.829Z,18.60
2018-05-29T02:06:03.461Z,18.60
2018-05-29T02:08:31.050Z,18.60
2018-05-29T02:10:58.643Z,18.60
2018-05-29T02:13:26.267Z,18.60
2018-05-29T02:15:53.862Z,18.50
2018-05-29T02:18:21.483Z,18.50
2018-05-29T02:20:49.066Z,18.50
2018-05-29T02:23:16.693Z,18.50
2018-05-29T02:25:44.268Z,18.50
2018-05-29T02:28:11.885Z,18.50
2018-05-29T02:30:39.476Z,18.40
2018-05-29T02:33:07.094Z,18.40
2018-05-29T02:35:34.683Z,18.40
2018-05-29T02:38:02.308Z,18.40
2018-05-29T02:40:29.949Z,18.40
2018-05-29T02:42:57.526Z,18.40
2018-05-29T02:45:25.101Z,18.30
2018-05-29T02:47:53.497Z,18.20
2018-05-29T02:50:21.829Z,18.20
2018-05-29T02:52:49.451Z,18.20
2018-05-29T02:55:17.044Z,18.20
2018-05-29T02:57:44.705Z,18.10
2018-05-29T03:00:12.279Z,18.20
2018-05-29T03:02:39.908Z,18.20
2018-05-29T03:05:07.505Z,18.20
2018-05-29T03:07:35.126Z,18.20
2018-05-29T03:10:02.714Z,18.10
2018-05-29T03:12:30.333Z,18.10
2018-05-29T03:14:57.923Z,18.10
2018-05-29T03:17:25.545Z,18.10
2018-05-29T03:19:53.161Z,18.10
2018-05-29T03:22:20.745Z,18.10
2018-05-29T03:24:48.369Z,18.10
2018-05-29T03:27:15.958Z,18.10
2018-05-29T03:29:43.593Z,18.10
2018-05-29T03:32:11.184Z,18.10
2018-05-29T03:34:38.806Z,18.10
2018-05-29T03:37:06.394Z,18.00
2018-05-29T03:39:34.053Z,18.10
2018-05-29T03:42:01.637Z,18.10
2018-05-29T03:44:29.253Z,18.10
2018-05-29T03:46:56.885Z,18.10
2018-05-29T03:49:24.489Z,18.10
2018-05-29T03:51:52.073Z,18.10
2018-05-29T03:54:20.464Z,18.20
2018-05-29T03:56:48.049Z,18.10
2018-05-29T03:59:15.690Z,18.20
2018-05-29T04:01:43.272Z,18.20
2018-05-29T04:04:10.882Z,18.20
2018-05-29T04:06:38.497Z,18.20
2018-05-29T04:09:06.977Z,18.20
2018-05-29T04:11:34.561Z,18.20
2018-05-29T04:14:02.181Z,18.20
2018-05-29T04:16:30.559Z,18.30
2018-05-29T04:18:58.905Z,18.40
2018-05-29T04:21:26.532Z,18.40
2018-05-29T04:23:54.122Z,18.40
2018-05-29T04:26:21.757Z,18.50
2018-05-29T04:28:49.345Z,18.50
2018-05-29T04:31:16.979Z,18.50
2018-05-29T04:33:44.564Z,18.60
2018-05-29T04:36:12.183Z,18.60
2018-05-29T04:38:39.769Z,18.70
2018-05-29T04:41:07.439Z,18.70
2018-05-29T04:43:35.065Z,18.70
2018-05-29T04:46:03.419Z,18.80
2018-05-29T04:48:31.056Z,18.80
2018-05-29T04:50:58.677Z,18.80
2018-05-29T04:53:26.275Z,18.90
2018-05-29T04:55:53.896Z,18.90
2018-05-29T04:58:21.483Z,18.90
2018-05-29T05:00:49.107Z,18.90
2018-05-29T05:03:17.498Z,18.90
2018-05-29T05:05:45.151Z,18.90
2018-05-29T05:08:13.265Z,18.90
2018-05-29T05:10:40.896Z,18.90
2018-05-29T05:13:08.521Z,18.90
2018-05-29T05:15:36.101Z,18.90
2018-05-29T05:18:03.734Z,18.90
2018-05-29T05:20:31.330Z,19.00
2018-05-29T05:22:58.958Z,19.00
2018-05-29T05:25:26.546Z,19.10
2018-05-29T05:27:54.169Z,19.10
2018-05-29T05:30:21.794Z,19.20
2018-05-29T05:32:49.474Z,19.30
2018-05-29T05:35:17.061Z,19.30
2018-05-29T05:37:44.682Z,19.40
2018-05-29T05:40:12.283Z,19.50
2018-05-29T05:42:39.931Z,19.50
2018-05-29T05:45:07.557Z,19.60
2018-05-29T05:47:35.179Z,19.70
2018-05-29T05:50:02.757Z,19.80
2018-05-29T05:52:30.384Z,19.90
2018-05-29T05:54:57.961Z,20.00
2018-05-29T05:57:25.594Z,20.10
2018-05-29T05:59:53.169Z,20.20
2018-05-29T06:02:20.821Z,20.30
2018-05-29T06:04:48.418Z,20.40
2018-05-29T06:07:16.019Z,20.50
2018-05-29T06:09:43.649Z,20.60
2018-05-29T06:12:11.230Z,20.70
2018-05-29T06:14:39.618Z,21.00
2018-05-29T06:17:07.212Z,20.90
2018-05-29T06:19:34.849Z,21.10
2018-05-29T06:22:02.571Z,21.30
2018-05-29T06:24:30.155Z,21.50
2018-05-29T06:26:57.780Z,21.60
2018-05-29T06:29:25.363Z,21.80
2018-05-29T06:31:53.000Z,21.90
2018-05-29T06:34:20.577Z,21.90
2018-05-29T06:36:48.213Z,22.00
2018-05-29T06:39:15.797Z,22.10
2018-05-29T06:41:43.418Z,22.20
2018-05-29T06:44:11.038Z,22.30
2018-05-29T06:46:38.628Z,22.50
2018-05-29T06:49:06.338Z,22.60
2018-05-29T06:51:33.922Z,22.80
2018-05-29T06:54:02.318Z,23.00
2018-05-29T06:56:29.951Z,23.00
2018-05-29T06:58:57.520Z,23.10
2018-05-29T07:01:25.909Z,23.30
2018-05-29T07:03:54.266Z,23.30
2018-05-29T07:06:22.709Z,23.30
2018-05-29T07:08:50.546Z,23.40
2018-05-29T07:11:18.583Z,23.50
2018-05-29T07:13:47.524Z,23.60
2018-05-29T07:16:16.498Z,23.70
2018-05-29T07:18:44.846Z,23.90
2018-05-29T07:21:13.314Z,24.00
2018-05-29T07:23:49.521Z,24.10
2018-05-29T07:26:20.698Z,24.20
2018-05-29T07:28:49.579Z,24.40
2018-05-29T07:31:18.030Z,24.40
2018-05-29T07:33:47.491Z,24.50
2018-05-29T07:36:15.867Z,24.50
2018-05-29T07:38:44.059Z,24.60
2018-05-29T07:41:13.105Z,24.60
2018-05-29T07:43:41.215Z,24.50
2018-05-29T07:46:15.302Z,24.60
2018-05-29T07:48:43.253Z,24.80
2018-05-29T07:51:12.563Z,24.90
2018-05-29T07:53:40.333Z,25.00
2018-05-29T07:56:08.176Z,25.10
2018-05-29T07:58:35.990Z,25.30
2018-05-29T08:01:04.570Z,25.40
2018-05-29T08:03:32.384Z,25.60
2018-05-29T08:06:00.815Z,25.70
2018-05-29T08:08:29.335Z,25.70
2018-05-29T08:10:57.810Z,25.80
2018-05-29T08:13:25.536Z,25.70
2018-05-29T08:15:53.292Z,25.80
2018-05-29T08:18:20.932Z,25.90
2018-05-29T08:20:48.618Z,25.80
2018-05-29T08:23:16.202Z,25.90
2018-05-29T08:25:43.830Z,26.00
2018-05-29T08:28:11.463Z,26.00
2018-05-29T08:30:39.058Z,26.10
2018-05-29T08:33:06.684Z,26.20
2018-05-29T08:35:34.280Z,26.30
2018-05-29T08:38:01.911Z,26.40
2018-05-29T08:40:29.498Z,26.40
2018-05-29T08:42:57.078Z,26.60
2018-05-29T08:45:24.706Z,26.70
2018-05-29T08:47:52.343Z,26.80
2018-05-29T08:50:19.977Z,26.80
2018-05-29T08:52:47.564Z,26.80
2018-05-29T08:55:15.177Z,26.80
2018-05-29T08:57:42.798Z,26.90
2018-05-29T09:00:10.421Z,26.90
2018-05-29T09:02:38.101Z,27.00
2018-05-29T09:05:05.690Z,27.10
2018-05-29T09:07:33.278Z,27.20
2018-05-29T09:10:00.913Z,27.20
2018-05-29T09:12:28.512Z,27.40
2018-05-29T09:14:56.090Z,27.60
2018-05-29T09:17:23.722Z,27.50
2018-05-29T09:19:51.324Z,27.60
2018-05-29T09:22:18.918Z,27.70
2018-05-29T09:24:47.315Z,28.20
2018-05-29T09:27:15.703Z,28.30
2018-05-29T09:29:43.357Z,28.20
2018-05-29T09:32:10.935Z,28.20
2018-05-29T09:34:38.521Z,28.40
2018-05-29T09:37:06.166Z,28.50
2018-05-29T09:39:33.790Z,28.60
2018-05-29T09:42:01.423Z,28.70
2018-05-29T09:44:29.015Z,28.60
2018-05-29T09:46:56.602Z,28.70
2018-05-29T09:49:24.229Z,28.80
2018-05-29T09:51:51.868Z,28.80
2018-05-29T09:54:19.490Z,28.90
2018-05-29T09:56:47.078Z,29.00
2018-05-29T09:59:14.702Z,29.10
2018-05-29T10:01:42.285Z,29.20
2018-05-29T10:04:09.923Z,29.40
2018-05-29T10:06:37.522Z,29.60
2018-05-29T10:09:05.888Z,29.70
2018-05-29T10:11:33.518Z,29.80
2018-05-29T10:14:01.097Z,29.80
2018-05-29T10:16:28.733Z,29.80
2018-05-29T10:18:56.328Z,29.80
2018-05-29T10:21:23.956Z,29.70
2018-05-29T10:23:51.550Z,29.90
2018-05-29T10:26:19.179Z,30.00
2018-05-29T10:28:46.766Z,30.00
2018-05-29T10:31:14.385Z,29.90
2018-05-29T10:33:41.965Z,29.90
2018-05-29T10:36:10.355Z,30.10
2018-05-29T10:38:38.751Z,30.20
2018-05-29T10:41:06.333Z,30.20
2018-05-29T10:43:33.918Z,30.20
2018-05-29T10:46:01.590Z,30.30
2018-05-29T10:48:29.153Z,30.50
2018-05-29T10:50:56.778Z,30.40
2018-05-29T10:53:24.397Z,30.50
2018-05-29T10:55:52.756Z,30.70
2018-05-29T10:58:20.386Z,30.70
2018-05-29T11:00:47.969Z,30.80
2018-05-29T11:03:15.566Z,30.80
2018-05-29T11:05:43.211Z,30.70
2018-05-29T11:08:11.569Z,30.70
2018-05-29T11:10:39.154Z,30.70
2018-05-29T11:13:06.788Z,30.90
2018-05-29T11:15:35.174Z,31.20
2018-05-29T11:18:02.808Z,31.20
2018-05-29T11:20:30.384Z,31.40
2018-05-29T11:22:57.966Z,31.40
2018-05-29T11:25:25.590Z,31.40
2018-05-29T11:27:53.214Z,31.50
2018-05-29T11:30:20.875Z,31.50
2018-05-29T11:32:49.222Z,31.50
2018-05-29T11:35:16.819Z,31.50
2018-05-29T11:37:45.182Z,31.50
2018-05-29T11:40:12.779Z,31.50
2018-05-29T11:42:41.589Z,31.70
2018-05-29T11:45:09.217Z,31.80
2018-05-29T11:47:36.803Z,31.90
2018-05-29T11:50:04.430Z,31.90
2018-05-29T11:52:32.017Z,32.00
2018-05-29T11:54:59.655Z,32.10
2018-05-29T11:57:27.252Z,32.10
2018-05-29T11:59:54.882Z,32.10
2018-05-29T12:02:22.473Z,32.10
2018-05-29T12:04:50.101Z,32.10
2018-05-29T12:07:17.686Z,32.30
2018-05-29T12:09:45.317Z,32.40
2018-05-29T12:12:24.665Z,32.40
2018-05-29T12:14:52.310Z,32.50
2018-05-29T12:17:20.783Z,32.40
2018-05-29T12:19:48.386Z,32.40
2018-05-29T12:22:16.028Z,32.50
2018-05-29T12:24:43.661Z,32.60
2018-05-29T12:27:11.288Z,32.70
2018-05-29T12:29:40.748Z,32.70
2018-05-29T12:32:10.082Z,33.10
2018-05-29T12:34:40.112Z,33.10
2018-05-29T12:37:08.269Z,33.40
2018-05-29T12:39:36.022Z,33.70
2018-05-29T12:42:03.650Z,34.00
2018-05-29T12:44:31.282Z,33.90
2018-05-29T12:46:58.925Z,33.90
2018-05-29T12:49:26.514Z,34.00
2018-05-29T12:51:54.140Z,34.20
2018-05-29T12:54:21.726Z,34.30
2018-05-29T12:56:49.348Z,34.60
2018-05-29T12:59:16.949Z,34.60
2018-05-29T13:01:44.579Z,34.80
2018-05-29T13:04:13.706Z,35.00
2018-05-29T13:06:44.983Z,34.90
2018-05-29T13:09:16.206Z,34.90
2018-05-29T13:11:43.929Z,34.90
2018-05-29T13:14:11.575Z,35.20
2018-05-29T13:16:39.942Z,35.00
2018-05-29T13:19:07.537Z,34.90
2018-05-29T13:21:35.168Z,35.30
2018-05-29T13:24:02.797Z,35.70
2018-05-29T13:26:30.416Z,35.70
2018-05-29T13:28:58.773Z,35.50
2018-05-29T13:31:26.408Z,35.50
2018-05-29T13:33:54.003Z,35.70
2018-05-29T13:36:22.342Z,35.90
2018-05-29T13:38:50.006Z,35.90
2018-05-29T13:41:17.604Z,36.10
2018-05-29T13:43:45.996Z,35.70
2018-05-29T13:46:14.341Z,35.40
2018-05-29T13:48:41.993Z,35.40
2018-05-29T13:51:09.578Z,34.30
2018-05-29T13:53:37.172Z,33.50
2018-05-29T13:56:04.794Z,33.20
2018-05-29T13:58:32.390Z,33.00
2018-05-29T14:01:00.009Z,32.90
2018-05-29T14:03:27.592Z,33.30
2018-05-29T14:05:55.308Z,33.30
2018-05-29T14:08:22.891Z,33.10
2018-05-29T14:10:50.517Z,33.30
2018-05-29T14:13:18.296Z,33.80
2018-05-29T14:15:45.877Z,34.10
2018-05-29T14:18:13.498Z,34.50
2018-05-29T14:20:41.079Z,34.40
2018-05-29T14:23:08.669Z,34.00
2018-05-29T14:25:36.316Z,33.80
2018-05-29T14:28:03.905Z,33.70
2018-05-29T14:30:32.302Z,34.10
2018-05-29T14:33:00.651Z,34.20
2018-05-29T14:35:28.235Z,34.20
2018-05-29T14:37:55.860Z,34.50
2018-05-29T14:40:23.443Z,34.70
2018-05-29T14:42:51.078Z,35.00
2018-05-29T14:45:18.705Z,35.10
2018-05-29T14:47:46.286Z,35.30
2018-05-29T14:50:13.913Z,35.40
2018-05-29T14:52:41.505Z,35.50
2018-05-29T14:55:09.122Z,35.90
2018-05-29T14:57:36.707Z,36.00
2018-05-29T15:00:04.334Z,35.50
2018-05-29T15:02:31.962Z,35.00
2018-05-29T15:04:59.590Z,34.30
2018-05-29T15:07:27.170Z,33.80
2018-05-29T15:09:54.798Z,33.40
2018-05-29T15:12:22.439Z,33.40
2018-05-29T15:14:50.068Z,33.90
2018-05-29T15:17:17.693Z,34.20
2018-05-29T15:19:46.041Z,34.60
2018-05-29T15:22:13.672Z,34.60
2018-05-29T15:24:41.304Z,34.60
2018-05-29T15:27:09.640Z,35.20
2018-05-29T15:29:37.270Z,35.20
2018-05-29T15:32:04.858Z,35.70
2018-05-29T15:34:32.454Z,36.10
2018-05-29T15:37:00.087Z,36.20
2018-05-29T15:39:27.666Z,36.00
2018-05-29T15:41:55.307Z,35.60
2018-05-29T15:44:22.894Z,35.30
2018-05-29T15:46:50.491Z,35.00
2018-05-29T15:49:18.110Z,34.50
2018-05-29T15:51:45.700Z,33.80
2018-05-29T15:54:13.328Z,33.30
2018-05-29T15:56:40.917Z,33.00
2018-05-29T15:59:08.492Z,33.00
2018-05-29T16:01:36.113Z,32.90
2018-05-29T16:04:03.739Z,32.50
2018-05-29T16:06:31.321Z,32.30
2018-05-29T16:08:58.942Z,31.90
2018-05-29T16:11:26.534Z,31.50
2018-05-29T16:13:54.181Z,30.90
2018-05-29T16:16:21.818Z,30.40
2018-05-29T16:18:49.401Z,30.10
2018-05-29T16:21:16.990Z,30.00
2018-05-29T16:23:44.622Z,29.90
2018-05-29T16:26:12.213Z,29.80
2018-05-29T16:28:39.795Z,29.70
2018-05-29T16:31:08.229Z,29.40
2018-05-29T16:33:35.821Z,29.30
2018-05-29T16:36:03.441Z,29.20
2018-05-29T16:38:31.061Z,28.90
2018-05-29T16:40:58.642Z,28.50
2018-05-29T16:43:26.442Z,28.10
2018-05-29T16:45:54.030Z,27.80
2018-05-29T16:48:22.421Z,27.60
2018-05-29T16:50:49.994Z,27.50
2018-05-29T16:53:18.378Z,27.60
2018-05-29T16:55:46.760Z,27.60
2018-05-29T16:58:15.106Z,27.70
2018-05-29T17:00:42.726Z,27.70
2018-05-29T17:03:10.307Z,27.80
2018-05-29T17:05:38.657Z,27.80
2018-05-29T17:08:06.313Z,27.80
2018-05-29T17:10:33.904Z,26.80
2018-05-29T17:13:01.486Z,25.20
2018-05-29T17:15:29.191Z,23.80
2018-05-29T17:17:56.793Z,22.90
2018-05-29T17:20:24.475Z,22.20
2018-05-29T17:22:52.129Z,21.70
2018-05-29T17:25:19.727Z,21.40
2018-05-29T17:27:47.390Z,21.20
2018-05-29T17:30:15.817Z,21.00
2018-05-29T17:32:43.439Z,21.00
2018-05-29T17:35:11.069Z,21.10
2018-05-29T17:37:38.650Z,21.20
2018-05-29T17:40:06.334Z,21.30
2018-05-29T17:42:34.050Z,21.20
2018-05-29T17:45:01.706Z,21.00
2018-05-29T17:47:29.282Z,20.70
2018-05-29T17:49:56.901Z,20.40
2018-05-29T17:52:24.548Z,20.20
2018-05-29T17:54:52.195Z,20.10
2018-05-29T17:57:19.846Z,20.10
2018-05-29T17:59:47.450Z,20.10
2018-05-29T18:02:15.071Z,20.10
2018-05-29T18:04:42.693Z,20.30
2018-05-29T18:07:10.358Z,20.30
2018-05-29T18:09:37.994Z,20.40
2018-05-29T18:12:05.654Z,20.60
2018-05-29T18:14:33.264Z,20.70
2018-05-29T18:17:00.899Z,20.90
2018-05-29T18:19:28.530Z,21.00
2018-05-29T18:21:56.120Z,21.10
2018-05-29T18:24:23.761Z,21.10
2018-05-29T18:26:51.614Z,21.30
2018-05-29T18:29:19.171Z,21.50
2018-05-29T18:31:48.209Z,21.80
2018-05-29T18:34:15.809Z,21.80
2018-05-29T18:36:43.435Z,21.90
2018-05-29T18:39:12.014Z,21.90
2018-05-29T18:41:39.597Z,21.90
2018-05-29T18:44:07.207Z,22.00
2018-05-29T18:46:34.794Z,22.10
2018-05-29T18:49:07.267Z,22.10
2018-05-29T18:51:34.817Z,22.20
2018-05-29T18:54:03.264Z,22.10
2018-05-29T18:56:31.970Z,22.10
2018-05-29T18:59:00.576Z,22.00
2018-05-29T19:01:28.212Z,21.80
2018-05-29T19:03:55.887Z,21.60
2018-05-29T19:06:23.518Z,21.40
2018-05-29T19:08:51.864Z,20.90
2018-05-29T19:11:19.445Z,20.80
2018-05-29T19:13:47.069Z,20.50
2018-05-29T19:16:14.654Z,20.20
2018-05-29T19:18:42.274Z,19.90
2018-05-29T19:21:09.897Z,19.70
2018-05-29T19:23:37.520Z,19.60
2018-05-29T19:26:05.137Z,19.50
2018-05-29T19:28:32.724Z,19.40
2018-05-29T19:31:00.340Z,19.40
2018-05-29T19:33:27.932Z,19.40
2018-05-29T19:35:55.550Z,19.40
2018-05-29T19:38:23.943Z,19.40
2018-05-29T19:40:51.569Z,19.40
2018-05-29T19:43:19.561Z,19.30
2018-05-29T19:45:47.190Z,19.00
2018-05-29T19:48:14.773Z,18.70
2018-05-29T19:50:42.420Z,18.50
2018-05-29T19:53:10.002Z,18.30
2018-05-29T19:55:37.628Z,18.20
2018-05-29T19:58:05.224Z,18.10
2018-05-29T20:00:32.805Z,18.10
2018-05-29T20:03:00.429Z,18.10
2018-05-29T20:05:28.098Z,18.10
2018-05-29T20:07:55.793Z,17.90
2018-05-29T20:10:23.408Z,17.70
2018-05-29T20:12:51.030Z,17.40
2018-05-29T20:15:19.385Z,17.40
2018-05-29T20:17:47.009Z,17.30
2018-05-29T20:20:14.598Z,17.40
2018-05-29T20:22:42.219Z,17.50
2018-05-29T20:25:09.848Z,17.50
2018-05-29T20:27:38.201Z,17.20
2018-05-29T20:30:05.843Z,17.20
2018-05-29T20:32:34.184Z,17.20
2018-05-29T20:35:03.242Z,17.20
2018-05-29T20:37:31.904Z,17.30
2018-05-29T20:40:00.278Z,17.30
2018-05-29T20:42:27.899Z,17.40
2018-05-29T20:44:55.492Z,17.40
2018-05-29T20:47:23.109Z,17.30
2018-05-29T20:49:50.734Z,17.30
2018-05-29T20:52:18.354Z,17.40
2018-05-29T20:54:45.993Z,17.30
2018-05-29T20:57:13.617Z,17.30
2018-05-29T20:59:41.207Z,17.40
2018-05-29T21:02:08.921Z,17.40
2018-05-29T21:04:36.538Z,17.30
2018-05-29T21:07:04.438Z,17.40
2018-05-29T21:09:32.031Z,17.50
2018-05-29T21:11:59.614Z,17.50
2018-05-29T21:14:28.074Z,17.50
2018-05-29T21:16:55.654Z,17.50
2018-05-29T21:19:23.255Z,17.60
2018-05-29T21:21:51.638Z,17.60
2018-05-29T21:24:20.025Z,17.60
2018-05-29T21:26:49.585Z,17.60
2018-05-29T21:29:17.170Z,17.60
2018-05-29T21:31:44.758Z,17.70
2018-05-29T21:34:12.380Z,17.70
2018-05-29T21:36:40.022Z,17.70
2018-05-29T21:39:07.607Z,17.80
2018-05-29T21:41:35.194Z,17.80
2018-05-29T21:44:02.818Z,17.80
2018-05-29T21:46:30.456Z,17.80
2018-05-29T21:48:58.041Z,17.90
2018-05-29T21:51:25.630Z,17.90
2018-05-29T21:53:53.250Z,18.00
2018-05-29T21:56:20.876Z,18.00
2018-05-29T21:58:48.466Z,18.00
2018-05-29T22:01:16.051Z,18.00
2018-05-29T22:03:43.688Z,18.00
2018-05-29T22:06:11.310Z,18.00
2018-05-29T22:08:38.889Z,18.00
2018-05-29T22:11:06.510Z,18.00
2018-05-29T22:13:34.866Z,18.00
2018-05-29T22:16:02.487Z,18.00
2018-05-29T22:18:30.069Z,17.90
2018-05-29T22:20:57.732Z,17.90
2018-05-29T22:23:25.311Z,17.90
2018-05-29T22:25:52.942Z,18.00
2018-05-29T22:28:20.527Z,17.90
2018-05-29T22:30:48.114Z,17.90
2018-05-29T22:33:15.742Z,17.90
2018-05-29T22:35:43.378Z,17.90
2018-05-29T22:38:10.966Z,17.90
2018-05-29T22:40:38.553Z,17.90
2018-05-29T22:43:06.182Z,18.00
2018-05-29T22:45:33.769Z,18.00
2018-05-29T22:48:01.350Z,18.00
2018-05-29T22:50:28.983Z,18.00
2018-05-29T22:52:56.572Z,18.00
2018-05-29T22:55:24.210Z,18.00
2018-05-29T22:57:51.818Z,18.00
2018-05-29T23:00:19.408Z,18.00
2018-05-29T23:02:47.037Z,18.00
2018-05-29T23:05:14.674Z,18.00
2018-05-29T23:07:42.275Z,18.00
2018-05-29T23:10:09.856Z,18.00
2018-05-29T23:12:37.487Z,18.00
2018-05-29T23:15:05.128Z,18.10
2018-05-29T23:17:32.761Z,18.00
2018-05-29T23:20:00.341Z,18.00
2018-05-29T23:22:27.932Z,18.00
2018-05-29T23:24:55.557Z,18.00
2018-05-29T23:27:23.167Z,18.00
2018-05-29T23:29:50.753Z,18.00
2018-05-29T23:32:18.393Z,18.00
2018-05-29T23:34:46.014Z,18.00
2018-05-29T23:39:47.491Z,18.10
2018-05-29T23:42:15.118Z,18.10
2018-05-29T23:44:42.733Z,18.00
2018-05-29T23:47:10.352Z,18.00
2018-05-29T23:49:37.992Z,18.00
2018-05-29T23:52:05.570Z,18.00
2018-05-29T23:54:33.149Z,18.00
2018-05-29T23:57:00.774Z,18.10
2018-05-29T23:59:28.396Z,18.10
